createdAt,value
2018-12-19T00:00:08.835Z,9.40
2018-12-19T00:02:36.340Z,7.40
2018-12-19T00:05:04.171Z,9.73
2018-12-19T00:07:31.692Z,18.33
2018-12-19T00:09:59.235Z,6.00
2018-12-19T00:12:26.747Z,6.30
2018-12-19T00:14:54.251Z,9.10
2018-12-19T00:17:21.783Z,6.37
2018-12-19T00:19:49.280Z,6.77
2018-12-19T00:22:16.820Z,6.20
2018-12-19T00:24:44.540Z,8.00
2018-12-19T00:27:12.054Z,6.00
2018-12-19T00:29:39.599Z,6.80
2018-12-19T00:32:07.103Z,7.37
2018-12-19T00:34:34.759Z,7.00
2018-12-19T00:37:02.271Z,7.63
2018-12-19T00:39:29.779Z,7.43
2018-12-19T00:41:57.319Z,8.50
2018-12-19T00:44:24.829Z,8.20
2018-12-19T00:46:52.601Z,8.50
2018-12-19T00:49:20.115Z,9.57
2018-12-19T00:51:47.622Z,8.53
2018-12-19T00:54:15.183Z,15.43
2018-12-19T00:56:42.704Z,9.40
2018-12-19T00:59:10.427Z,7.90
2018-12-19T01:01:37.931Z,8.13
2018-12-19T01:04:05.435Z,8.97
2018-12-19T01:06:33.683Z,7.10
2018-12-19T01:09:01.323Z,9.17
2018-12-19T01:11:28.860Z,9.87
2018-12-19T01:13:56.370Z,8.00
2018-12-19T01:16:23.882Z,10.40
2018-12-19T01:18:51.423Z,7.93
2018-12-19T01:21:18.935Z,9.27
2018-12-19T01:23:46.495Z,7.40
2018-12-19T01:26:14.008Z,10.40
2018-12-19T01:28:41.515Z,9.07
2018-12-19T01:31:09.052Z,9.97
2018-12-19T01:33:36.587Z,10.17
2018-12-19T01:36:04.235Z,7.90
2018-12-19T01:38:31.880Z,7.23
2018-12-19T01:40:59.388Z,8.93
2018-12-19T01:43:26.919Z,7.97
2018-12-19T01:45:54.427Z,9.47
2018-12-19T01:48:22.131Z,9.33
2018-12-19T01:50:49.635Z,8.13
2018-12-19T01:53:17.155Z,15.83
2018-12-19T01:55:44.887Z,8.73
2018-12-19T01:58:12.400Z,9.33
2018-12-19T02:00:40.147Z,9.00
2018-12-19T02:03:07.651Z,9.80
2018-12-19T02:05:35.159Z,12.50
2018-12-19T02:08:02.691Z,9.07
2018-12-19T02:10:30.195Z,9.77
2018-12-19T02:12:57.855Z,8.60
2018-12-19T02:15:25.359Z,15.20
2018-12-19T02:17:52.872Z,10.00
2018-12-19T02:20:20.412Z,10.23
2018-12-19T02:22:47.939Z,11.90
2018-12-19T02:25:15.730Z,9.63
2018-12-19T02:27:43.235Z,9.60
2018-12-19T02:30:10.865Z,10.77
2018-12-19T02:32:38.407Z,14.07
2018-12-19T02:35:06.015Z,9.53
2018-12-19T02:37:33.565Z,10.17
2018-12-19T02:40:01.093Z,9.43
2018-12-19T02:42:28.620Z,10.27
2018-12-19T02:44:56.160Z,9.83
2018-12-19T02:47:23.670Z,10.80
2018-12-19T02:49:51.228Z,8.80
2018-12-19T02:52:18.739Z,11.63
2018-12-19T02:54:46.250Z,9.33
2018-12-19T02:57:13.799Z,10.50
2018-12-19T02:59:41.308Z,9.30
2018-12-19T03:02:08.895Z,10.57
2018-12-19T03:04:36.411Z,8.53
2018-12-19T03:07:03.916Z,8.63
2018-12-19T03:09:31.453Z,9.20
2018-12-19T03:11:58.960Z,8.80
2018-12-19T03:14:26.611Z,9.07
2018-12-19T03:16:54.144Z,15.53
2018-12-19T03:19:21.659Z,9.00
2018-12-19T03:21:49.292Z,9.03
2018-12-19T03:24:16.799Z,7.93
2018-12-19T03:26:44.353Z,8.90
2018-12-19T03:29:12.368Z,11.23
2018-12-19T03:31:39.885Z,8.70
2018-12-19T03:34:07.440Z,11.10
2018-12-19T03:36:34.952Z,9.90
2018-12-19T03:39:02.688Z,9.20
2018-12-19T03:41:30.205Z,9.60
2018-12-19T03:43:57.760Z,9.00
2018-12-19T03:46:25.299Z,8.60
2018-12-19T03:48:57.481Z,9.50
2018-12-19T03:51:25.019Z,9.47
2018-12-19T03:53:52.523Z,9.47
2018-12-19T03:56:20.129Z,11.10
2018-12-19T03:58:47.643Z,12.20
2018-12-19T04:01:15.188Z,9.50
2018-12-19T04:03:42.701Z,8.83
2018-12-19T04:06:10.235Z,6.70
2018-12-19T04:08:37.744Z,6.90
2018-12-19T04:11:05.243Z,8.47
2018-12-19T04:13:32.807Z,8.83
2018-12-19T04:16:00.319Z,8.67
2018-12-19T04:18:27.891Z,10.70
2018-12-19T04:20:55.428Z,13.20
2018-12-19T04:23:22.936Z,10.23
2018-12-19T04:25:50.475Z,10.23
2018-12-19T04:28:18.017Z,11.03
2018-12-19T04:30:45.560Z,10.53
2018-12-19T04:33:13.086Z,10.20
2018-12-19T04:35:40.623Z,13.10
2018-12-19T04:38:08.167Z,12.23
2018-12-19T04:40:35.691Z,14.03
2018-12-19T04:43:03.568Z,10.30
2018-12-19T04:45:31.082Z,12.37
2018-12-19T04:47:58.591Z,14.07
2018-12-19T04:50:26.159Z,10.70
2018-12-19T04:52:53.668Z,9.00
2018-12-19T04:55:21.261Z,11.73
2018-12-19T04:57:49.403Z,11.33
2018-12-19T05:00:16.909Z,9.90
2018-12-19T05:02:44.554Z,17.73
2018-12-19T05:05:12.130Z,10.60
2018-12-19T05:07:39.881Z,10.07
2018-12-19T05:10:12.342Z,12.40
2018-12-19T05:12:37.140Z,11.63
2018-12-19T05:15:05.979Z,12.03
2018-12-19T05:17:33.488Z,10.30
2018-12-19T05:20:01.231Z,8.43
2018-12-19T05:22:28.743Z,10.23
2018-12-19T05:24:56.764Z,9.00
2018-12-19T05:27:24.324Z,9.70
2018-12-19T05:29:53.216Z,7.43
2018-12-19T05:32:20.946Z,8.33
2018-12-19T05:34:48.495Z,8.90
2018-12-19T05:37:16.208Z,7.93
2018-12-19T05:39:43.720Z,7.93
2018-12-19T05:42:11.273Z,7.73
2018-12-19T05:44:38.865Z,8.53
2018-12-19T05:47:06.391Z,8.57
2018-12-19T05:49:34.565Z,9.30
2018-12-19T05:52:02.089Z,10.97
2018-12-19T05:54:29.737Z,7.87
2018-12-19T05:56:57.315Z,7.87
2018-12-19T05:59:24.837Z,8.93
2018-12-19T06:01:52.390Z,7.80
2018-12-19T06:04:19.899Z,8.00
2018-12-19T06:06:47.439Z,7.97
2018-12-19T06:09:14.959Z,8.63
2018-12-19T06:11:42.491Z,9.10
2018-12-19T06:14:10.016Z,11.77
2018-12-19T06:16:37.567Z,8.20
2018-12-19T06:19:05.091Z,11.23
2018-12-19T06:21:32.607Z,8.83
2018-12-19T06:24:00.156Z,11.37
2018-12-19T06:26:27.704Z,7.97
2018-12-19T06:28:55.391Z,7.70
2018-12-19T06:31:22.911Z,14.40
2018-12-19T06:33:50.736Z,10.07
2018-12-19T06:36:18.647Z,11.50
2018-12-19T06:38:46.197Z,11.17
2018-12-19T06:41:13.764Z,10.83
2018-12-19T06:43:41.995Z,12.70
2018-12-19T06:46:09.513Z,9.47
2018-12-19T06:48:37.126Z,8.70
2018-12-19T06:51:04.663Z,10.97
2018-12-19T06:53:32.303Z,11.43
2018-12-19T06:55:59.811Z,8.40
2018-12-19T06:58:27.326Z,7.60
2018-12-19T07:00:54.871Z,13.20
2018-12-19T07:03:22.418Z,8.73
2018-12-19T07:05:49.967Z,7.90
2018-12-19T07:08:17.512Z,8.50
2018-12-19T07:10:45.528Z,9.50
2018-12-19T07:13:13.088Z,9.00
2018-12-19T07:15:40.641Z,9.87
2018-12-19T07:18:08.508Z,16.40
2018-12-19T07:20:36.491Z,10.63
2018-12-19T07:23:04.041Z,18.73
2018-12-19T07:25:31.724Z,12.67
2018-12-19T07:27:59.244Z,9.60
2018-12-19T07:30:26.796Z,11.53
2018-12-19T07:32:54.316Z,12.33
2018-12-19T07:35:21.858Z,8.23
2018-12-19T07:37:50.032Z,8.63
2018-12-19T07:40:17.542Z,9.23
2018-12-19T07:42:45.128Z,9.33
2018-12-19T07:45:12.639Z,9.80
2018-12-19T07:47:40.147Z,12.03
2018-12-19T07:50:07.711Z,9.70
2018-12-19T07:52:35.231Z,12.50
2018-12-19T07:55:02.867Z,11.80
2018-12-19T07:57:30.387Z,12.80
2018-12-19T07:59:57.907Z,11.73
2018-12-19T08:02:25.485Z,14.00
2018-12-19T08:04:53.995Z,10.87
2018-12-19T08:07:21.852Z,15.90
2018-12-19T08:09:49.393Z,12.10
2018-12-19T08:12:16.919Z,11.07
2018-12-19T08:14:44.467Z,10.90
2018-12-19T08:17:11.980Z,10.57
2018-12-19T08:19:39.539Z,12.20
2018-12-19T08:22:07.086Z,16.67
2018-12-19T08:24:34.628Z,14.70
2018-12-19T08:27:02.192Z,13.67
2018-12-19T08:29:29.716Z,12.63
2018-12-19T08:31:57.477Z,13.20
2018-12-19T08:34:24.997Z,11.33
2018-12-19T08:36:52.667Z,15.20
2018-12-19T08:39:20.465Z,12.53
2018-12-19T08:41:48.299Z,13.47
2018-12-19T08:44:15.875Z,13.80
2018-12-19T08:46:43.419Z,14.80
2018-12-19T08:49:10.935Z,14.13
2018-12-19T08:51:38.615Z,14.10
2018-12-19T08:54:06.132Z,14.67
2018-12-19T08:56:33.643Z,16.90
2018-12-19T08:59:01.320Z,16.80
2018-12-19T09:01:28.848Z,18.77
2018-12-19T09:03:56.368Z,15.50
2018-12-19T09:06:24.067Z,16.10
2018-12-19T09:08:51.667Z,18.07
2018-12-19T09:11:19.228Z,15.70
2018-12-19T09:13:46.890Z,12.80
2018-12-19T09:16:14.391Z,12.87
2018-12-19T09:18:41.895Z,24.30
2018-12-19T09:21:09.561Z,11.53
2018-12-19T09:23:37.086Z,9.53
2018-12-19T09:26:04.635Z,10.43
2018-12-19T09:28:32.347Z,12.97
2018-12-19T09:31:00.336Z,13.33
2018-12-19T09:33:27.882Z,13.37
2018-12-19T09:35:55.435Z,18.10
2018-12-19T09:38:22.998Z,11.00
2018-12-19T09:40:50.519Z,10.83
2018-12-19T09:43:18.215Z,13.27
2018-12-19T09:45:46.699Z,14.90
2018-12-19T09:48:14.223Z,19.53
2018-12-19T09:50:41.792Z,13.90
2018-12-19T09:53:09.307Z,11.17
2018-12-19T09:55:36.942Z,13.13
2018-12-19T09:58:04.607Z,11.50
2018-12-19T10:00:32.155Z,12.67
2018-12-19T10:02:59.692Z,17.47
2018-12-19T10:05:27.220Z,12.87
2018-12-19T10:07:54.763Z,14.50
2018-12-19T10:10:22.320Z,13.43
2018-12-19T10:12:50.006Z,17.77
2018-12-19T10:15:17.539Z,11.13
2018-12-19T10:17:45.063Z,12.90
2018-12-19T10:20:12.619Z,19.90
2018-12-19T10:22:40.159Z,13.83
2018-12-19T10:25:13.466Z,12.50
2018-12-19T10:27:41.131Z,22.73
2018-12-19T10:30:10.744Z,15.20
2018-12-19T10:32:39.405Z,13.03
2018-12-19T10:35:09.395Z,15.33
2018-12-19T10:37:37.183Z,13.47
2018-12-19T10:40:07.319Z,10.80
2018-12-19T10:42:34.879Z,13.50
2018-12-19T10:45:02.752Z,14.40
2018-12-19T10:47:30.268Z,14.40
2018-12-19T10:49:57.857Z,12.63
2018-12-19T10:52:25.371Z,17.50
2018-12-19T10:54:52.908Z,13.20
2018-12-19T10:57:20.452Z,14.37
2018-12-19T10:59:47.956Z,11.97
2018-12-19T11:02:15.692Z,10.50
2018-12-19T11:04:43.224Z,15.63
2018-12-19T11:07:10.747Z,12.63
2018-12-19T11:09:38.287Z,15.10
2018-12-19T11:12:05.823Z,12.27
2018-12-19T11:14:35.331Z,11.90
2018-12-19T11:17:02.972Z,13.20
2018-12-19T11:19:30.492Z,17.93
2018-12-19T11:21:58.051Z,11.00
2018-12-19T11:24:25.565Z,11.90
2018-12-19T11:26:53.416Z,12.90
2018-12-19T11:29:20.937Z,13.57
2018-12-19T11:31:48.460Z,13.17
2018-12-19T11:34:16.003Z,16.37
2018-12-19T11:36:43.522Z,17.40
2018-12-19T11:39:11.059Z,17.13
2018-12-19T11:41:39.089Z,14.90
2018-12-19T11:44:07.059Z,18.73
2018-12-19T11:46:34.604Z,20.50
2018-12-19T11:49:02.123Z,15.97
2018-12-19T11:51:29.667Z,20.27
2018-12-19T11:53:57.188Z,17.73
2018-12-19T11:56:24.752Z,19.47
2018-12-19T11:58:52.270Z,18.27
2018-12-19T12:01:19.824Z,18.60
2018-12-19T12:03:47.377Z,16.50
2018-12-19T12:06:14.895Z,17.03
2018-12-19T12:08:42.440Z,14.03
2018-12-19T12:11:09.992Z,20.53
2018-12-19T12:13:37.508Z,18.07
2018-12-19T12:16:05.057Z,18.60
2018-12-19T12:18:32.575Z,18.03
2018-12-19T12:21:00.247Z,16.03
2018-12-19T12:23:27.796Z,18.00
2018-12-19T12:25:55.315Z,17.97
2018-12-19T12:28:22.859Z,20.57
2018-12-19T12:30:50.377Z,17.07
2018-12-19T12:33:17.927Z,25.20
2018-12-19T12:35:45.551Z,16.53
2018-12-19T12:38:13.058Z,16.43
2018-12-19T12:40:40.611Z,22.83
2018-12-19T12:43:08.145Z,21.13
2018-12-19T12:45:35.855Z,19.00
2018-12-19T12:48:03.527Z,17.70
2018-12-19T12:50:31.055Z,18.40
2018-12-19T12:52:58.601Z,18.03
2018-12-19T12:55:26.124Z,18.43
2018-12-19T12:57:53.668Z,18.67
2018-12-19T13:00:21.203Z,21.90
2018-12-19T13:02:48.719Z,21.40
2018-12-19T13:05:16.379Z,21.43
2018-12-19T13:07:43.895Z,19.50
2018-12-19T13:10:11.747Z,18.43
2018-12-19T13:12:39.264Z,19.17
2018-12-19T13:15:07.319Z,20.93
2018-12-19T13:17:34.876Z,17.60
2018-12-19T13:20:02.587Z,20.27
2018-12-19T13:22:30.257Z,22.43
2018-12-19T13:24:57.771Z,22.07
2018-12-19T13:27:25.292Z,17.73
2018-12-19T13:29:52.831Z,19.40
2018-12-19T13:32:20.445Z,16.53
2018-12-19T13:34:48.260Z,17.20
2018-12-19T13:37:15.775Z,19.53
2018-12-19T13:39:43.288Z,19.87
2018-12-19T13:42:10.821Z,20.57
2018-12-19T13:44:38.331Z,18.47
2018-12-19T13:47:05.879Z,17.70
2018-12-19T13:49:33.404Z,19.33
2018-12-19T13:52:00.921Z,17.40
2018-12-19T13:54:28.468Z,17.33
2018-12-19T13:56:55.987Z,22.07
2018-12-19T13:59:23.856Z,18.07
2018-12-19T14:01:51.375Z,17.77
2018-12-19T14:04:19.215Z,18.93
2018-12-19T14:06:46.759Z,25.00
2018-12-19T14:09:14.297Z,19.23
2018-12-19T14:11:42.085Z,18.93
2018-12-19T14:14:09.620Z,17.27
2018-12-19T14:16:37.147Z,17.70
2018-12-19T14:19:04.702Z,19.47
2018-12-19T14:21:32.228Z,30.17
2018-12-19T14:23:59.796Z,17.03
2018-12-19T14:26:27.319Z,21.47
2018-12-19T14:28:54.838Z,22.80
2018-12-19T14:31:22.383Z,18.53
2018-12-19T14:33:50.043Z,21.20
2018-12-19T14:36:17.603Z,21.07
2018-12-19T14:38:45.115Z,28.80
2018-12-19T14:41:12.634Z,29.37
2018-12-19T14:43:40.177Z,18.40
2018-12-19T14:46:08.293Z,17.83
2018-12-19T14:48:35.847Z,17.93
2018-12-19T14:51:03.467Z,20.87
2018-12-19T14:53:30.975Z,19.83
2018-12-19T14:55:58.523Z,27.40
2018-12-19T14:58:26.031Z,20.83
2018-12-19T15:00:53.592Z,19.20
2018-12-19T15:03:21.110Z,26.03
2018-12-19T15:05:48.724Z,21.60
2018-12-19T15:08:16.375Z,16.70
2018-12-19T15:10:43.896Z,23.10
2018-12-19T15:13:11.448Z,15.90
2018-12-19T15:15:38.956Z,17.63
2018-12-19T15:18:06.472Z,21.40
2018-12-19T15:20:34.008Z,16.00
2018-12-19T15:23:01.751Z,18.30
2018-12-19T15:25:29.296Z,22.53
2018-12-19T15:27:56.811Z,16.43
2018-12-19T15:30:25.050Z,18.00
2018-12-19T15:32:52.871Z,19.00
2018-12-19T15:35:20.395Z,19.20
2018-12-19T15:37:47.967Z,16.43
2018-12-19T15:40:15.530Z,21.40
2018-12-19T15:42:43.240Z,15.90
2018-12-19T15:45:10.855Z,19.20
2018-12-19T15:47:38.372Z,15.63
2018-12-19T15:50:06.620Z,21.47
2018-12-19T15:52:34.153Z,15.03
2018-12-19T15:55:01.701Z,17.70
2018-12-19T15:57:29.240Z,17.17
2018-12-19T15:59:56.752Z,21.60
2018-12-19T16:02:24.293Z,21.53
2018-12-19T16:04:51.824Z,18.70
2018-12-19T16:07:19.376Z,21.27
2018-12-19T16:09:46.906Z,23.90
2018-12-19T16:12:14.419Z,20.93
2018-12-19T16:14:41.966Z,22.77
2018-12-19T16:17:09.472Z,19.67
2018-12-19T16:19:37.316Z,25.10
2018-12-19T16:22:04.956Z,35.20
2018-12-19T16:24:32.471Z,24.13
2018-12-19T16:27:00.007Z,28.00
2018-12-19T16:29:27.523Z,20.47
2018-12-19T16:31:55.103Z,26.80
2018-12-19T16:34:23.024Z,23.87
2018-12-19T16:36:50.549Z,19.40
2018-12-19T16:39:18.083Z,19.77
2018-12-19T16:41:45.592Z,17.73
2018-12-19T16:44:13.139Z,16.33
2018-12-19T16:46:40.654Z,14.40
2018-12-19T16:49:08.179Z,16.70
2018-12-19T16:51:35.727Z,20.40
2018-12-19T16:54:03.369Z,24.53
2018-12-19T16:56:31.122Z,27.13
2018-12-19T16:58:58.643Z,19.10
2018-12-19T17:01:26.163Z,16.03
2018-12-19T17:03:53.785Z,18.30
2018-12-19T17:06:21.299Z,18.70
2018-12-19T17:08:48.925Z,12.40
2018-12-19T17:11:16.439Z,14.00
2018-12-19T17:13:43.955Z,14.23
2018-12-19T17:16:11.504Z,13.00
2018-12-19T17:18:39.030Z,20.23
2018-12-19T17:21:06.579Z,13.73
2018-12-19T17:23:34.097Z,13.27
2018-12-19T17:26:01.816Z,20.10
2018-12-19T17:28:29.369Z,24.53
2018-12-19T17:30:56.896Z,15.23
2018-12-19T17:33:24.499Z,15.87
2018-12-19T17:35:52.015Z,17.10
2018-12-19T17:38:19.643Z,20.63
2018-12-19T17:40:47.208Z,16.37
2018-12-19T17:43:14.727Z,18.13
2018-12-19T17:45:42.283Z,23.57
2018-12-19T17:48:09.801Z,18.40
2018-12-19T17:50:37.964Z,23.03
2018-12-19T17:53:05.507Z,16.93
2018-12-19T17:55:33.023Z,16.40
2018-12-19T17:58:00.728Z,22.40
2018-12-19T18:00:28.341Z,15.33
2018-12-19T18:02:55.855Z,14.57
2018-12-19T18:05:23.407Z,20.73
2018-12-19T18:07:50.991Z,17.30
2018-12-19T18:10:18.612Z,18.53
2018-12-19T18:12:46.131Z,18.43
2018-12-19T18:15:13.647Z,19.27
2018-12-19T18:17:41.211Z,17.67
2018-12-19T18:20:08.851Z,17.90
2018-12-19T18:22:36.735Z,20.63
2018-12-19T18:25:04.655Z,19.10
2018-12-19T18:27:32.168Z,16.93
2018-12-19T18:29:59.722Z,19.73
2018-12-19T18:32:27.235Z,16.43
2018-12-19T18:34:54.779Z,23.23
2018-12-19T18:37:22.552Z,25.20
2018-12-19T18:39:50.067Z,22.20
2018-12-19T18:42:17.622Z,22.70
2018-12-19T18:44:45.135Z,22.07
2018-12-19T18:47:12.683Z,25.83
2018-12-19T18:49:40.223Z,16.90
2018-12-19T18:52:07.969Z,17.60
2018-12-19T18:54:35.555Z,26.10
2018-12-19T18:57:03.076Z,25.80
2018-12-19T18:59:30.625Z,24.03
2018-12-19T19:01:58.222Z,22.80
2018-12-19T19:04:25.849Z,18.60
2018-12-19T19:06:53.405Z,16.87
2018-12-19T19:09:20.997Z,18.60
2018-12-19T19:11:48.615Z,19.43
2018-12-19T19:14:16.133Z,19.60
2018-12-19T19:16:43.671Z,15.23
2018-12-19T19:19:11.313Z,18.70
2018-12-19T19:21:40.319Z,17.13
2018-12-19T19:24:08.203Z,16.30
2018-12-19T19:26:36.540Z,18.43
2018-12-19T19:29:04.364Z,18.30
2018-12-19T19:31:32.098Z,21.50
2018-12-19T19:33:59.659Z,26.57
2018-12-19T19:36:27.182Z,22.40
2018-12-19T19:38:54.728Z,23.70
2018-12-19T19:41:22.257Z,26.67
2018-12-19T19:43:50.101Z,25.30
2018-12-19T19:46:17.647Z,35.83
2018-12-19T19:48:45.184Z,31.10
2018-12-19T19:51:16.987Z,30.90
2018-12-19T19:53:42.285Z,30.47
2018-12-19T19:56:09.950Z,42.40
2018-12-19T19:58:37.997Z,36.00
2018-12-19T20:01:05.525Z,51.53
2018-12-19T20:03:33.088Z,39.70
2018-12-19T20:06:00.607Z,40.43
2018-12-19T20:08:28.170Z,46.53
2018-12-19T20:10:55.947Z,32.40
2018-12-19T20:13:23.468Z,30.80
2018-12-19T20:15:51.015Z,33.13
2018-12-19T20:18:18.541Z,27.90
2018-12-19T20:20:46.272Z,28.53
2018-12-19T20:23:13.792Z,27.43
2018-12-19T20:25:41.311Z,32.43
2018-12-19T20:28:08.887Z,32.07
2018-12-19T20:30:36.462Z,31.13
2018-12-19T20:33:04.266Z,34.30
2018-12-19T20:35:31.895Z,29.87
2018-12-19T20:37:59.419Z,26.10
2018-12-19T20:40:26.980Z,27.53
2018-12-19T20:42:54.528Z,24.83
2018-12-19T20:45:22.366Z,29.87
2018-12-19T20:47:49.903Z,32.10
2018-12-19T20:50:17.423Z,25.70
2018-12-19T20:52:44.979Z,28.67
2018-12-19T20:55:12.513Z,28.10
2018-12-19T20:57:40.182Z,36.37
2018-12-19T21:00:07.950Z,32.43
2018-12-19T21:02:35.468Z,35.87
2018-12-19T21:05:03.039Z,32.87
2018-12-19T21:07:30.592Z,43.90
2018-12-19T21:09:58.148Z,33.50
2018-12-19T21:12:25.683Z,33.27
2018-12-19T21:14:53.300Z,24.83
2018-12-19T21:17:26.460Z,27.77
2018-12-19T21:19:53.972Z,31.07
2018-12-19T21:22:21.524Z,25.23
2018-12-19T21:24:49.039Z,24.73
2018-12-19T21:27:16.544Z,28.93
2018-12-19T21:29:44.092Z,25.50
2018-12-19T21:32:11.612Z,34.30
2018-12-19T21:34:39.327Z,33.13
2018-12-19T21:37:06.862Z,36.63
2018-12-19T21:39:34.405Z,39.03
2018-12-19T21:42:02.044Z,34.63
2018-12-19T21:44:29.688Z,41.73
2018-12-19T21:46:57.489Z,36.37
2018-12-19T21:49:25.131Z,31.90
2018-12-19T21:51:52.764Z,35.93
2018-12-19T21:54:20.401Z,32.50
2018-12-19T21:56:48.013Z,36.77
2018-12-19T21:59:15.675Z,34.20
2018-12-19T22:01:43.204Z,45.67
2018-12-19T22:04:10.727Z,46.10
2018-12-19T22:06:38.399Z,35.37
2018-12-19T22:09:07.911Z,36.20
2018-12-19T22:11:35.707Z,24.73
2018-12-19T22:14:03.261Z,33.43
2018-12-19T22:16:36.615Z,36.43
2018-12-19T22:19:04.299Z,39.33
2018-12-19T22:21:31.925Z,41.80
2018-12-19T22:23:59.564Z,34.40
2018-12-19T22:26:27.158Z,40.43
2018-12-19T22:28:54.681Z,34.40
2018-12-19T22:31:22.253Z,39.97
2018-12-19T22:33:49.807Z,33.00
2018-12-19T22:36:17.762Z,47.43
2018-12-19T22:38:45.288Z,48.30
2018-12-19T22:41:12.877Z,41.57
2018-12-19T22:43:40.482Z,43.30
2018-12-19T22:46:08.151Z,42.43
2018-12-19T22:48:35.939Z,39.50
2018-12-19T22:51:03.524Z,49.87
2018-12-19T22:53:31.217Z,44.40
2018-12-19T22:55:58.843Z,45.53
2018-12-19T22:58:26.376Z,54.90
2018-12-19T23:04:06.642Z,50.33
2018-12-19T23:06:34.823Z,49.87
2018-12-19T23:09:02.362Z,53.13
2018-12-19T23:11:29.968Z,44.60
2018-12-19T23:13:57.610Z,39.67
2018-12-19T23:16:25.171Z,48.13
2018-12-19T23:18:52.839Z,45.67
2018-12-19T23:21:20.370Z,54.37
2018-12-19T23:23:47.911Z,48.33
2018-12-19T23:26:15.668Z,47.20
2018-12-19T23:28:43.243Z,47.87
2018-12-19T23:31:10.932Z,48.37
2018-12-19T23:33:38.535Z,35.20
2018-12-19T23:36:06.128Z,35.00
2018-12-19T23:38:33.736Z,44.27
2018-12-19T23:41:01.375Z,34.53
2018-12-19T23:43:29.434Z,34.87
2018-12-19T23:45:56.999Z,38.80
2018-12-19T23:48:24.522Z,50.07
2018-12-19T23:50:52.225Z,44.33
2018-12-19T23:53:19.835Z,50.70
2018-12-19T23:55:47.551Z,69.00
2018-12-19T23:58:15.099Z,101.80
